createdAt,value
2018-12-05T00:01:06.063Z,7.90
2018-12-05T00:03:34.719Z,7.90
2018-12-05T00:06:03.485Z,7.80
2018-12-05T00:08:32.175Z,7.80
2018-12-05T00:11:02.194Z,7.70
2018-12-05T00:13:30.764Z,7.70
2018-12-05T00:15:59.297Z,7.70
2018-12-05T00:18:28.216Z,7.60
2018-12-05T00:20:56.707Z,7.60
2018-12-05T00:23:25.286Z,7.60
2018-12-05T00:25:54.134Z,7.60
2018-12-05T00:28:22.961Z,7.70
2018-12-05T00:30:51.571Z,7.60
2018-12-05T00:33:20.246Z,7.60
2018-12-05T00:35:48.863Z,7.60
2018-12-05T00:38:17.507Z,7.60
2018-12-05T00:40:46.178Z,7.60
2018-12-05T00:43:14.721Z,7.70
2018-12-05T00:45:43.622Z,7.70
2018-12-05T00:48:13.091Z,7.70
2018-12-05T00:50:41.649Z,7.70
2018-12-05T00:53:10.691Z,7.60
2018-12-05T00:55:39.221Z,7.60
2018-12-05T00:58:07.812Z,7.60
2018-12-05T01:00:36.599Z,7.50
2018-12-05T01:03:05.280Z,7.50
2018-12-05T01:05:33.886Z,7.60
2018-12-05T01:08:02.400Z,7.60
2018-12-05T01:10:30.929Z,7.60
2018-12-05T01:12:59.429Z,7.60
2018-12-05T01:15:28.104Z,7.50
2018-12-05T01:17:56.719Z,7.50
2018-12-05T01:20:25.968Z,7.60
2018-12-05T01:22:54.531Z,7.60
2018-12-05T01:25:23.422Z,7.60
2018-12-05T01:27:51.943Z,7.60
2018-12-05T01:30:20.831Z,7.60
2018-12-05T01:32:49.403Z,7.60
2018-12-05T01:35:18.079Z,7.60
2018-12-05T01:37:46.805Z,7.70
2018-12-05T01:40:15.420Z,7.70
2018-12-05T01:42:44.366Z,7.60
2018-12-05T01:45:13.030Z,7.70
2018-12-05T01:47:41.622Z,7.60
2018-12-05T01:50:11.048Z,7.60
2018-12-05T01:52:39.546Z,7.60
2018-12-05T01:55:08.171Z,7.60
2018-12-05T01:57:37.629Z,7.60
2018-12-05T02:00:06.782Z,7.60
2018-12-05T02:02:35.623Z,7.60
2018-12-05T02:05:04.270Z,7.60
2018-12-05T02:07:33.146Z,7.60
2018-12-05T02:10:01.787Z,7.60
2018-12-05T02:12:31.301Z,7.50
2018-12-05T02:14:59.870Z,7.50
2018-12-05T02:17:35.198Z,7.50
2018-12-05T02:20:04.231Z,7.50
2018-12-05T02:22:33.162Z,7.50
2018-12-05T02:25:01.810Z,7.50
2018-12-05T02:27:30.659Z,7.50
2018-12-05T02:29:59.166Z,7.50
2018-12-05T02:32:27.718Z,7.50
2018-12-05T02:34:56.350Z,7.50
2018-12-05T02:37:26.099Z,7.60
2018-12-05T02:39:54.684Z,7.50
2018-12-05T02:42:23.208Z,7.60
2018-12-05T02:44:51.830Z,7.60
2018-12-05T02:47:20.385Z,7.60
2018-12-05T02:49:49.324Z,7.60
2018-12-05T02:52:18.284Z,7.60
2018-12-05T02:54:46.950Z,7.70
2018-12-05T02:57:15.463Z,7.60
2018-12-05T02:59:43.991Z,7.60
2018-12-05T03:02:12.987Z,7.60
2018-12-05T03:04:42.497Z,7.60
2018-12-05T03:07:11.112Z,7.60
2018-12-05T03:09:40.021Z,7.60
2018-12-05T03:12:08.574Z,7.60
2018-12-05T03:14:37.171Z,7.70
2018-12-05T03:17:06.058Z,7.70
2018-12-05T03:19:34.585Z,7.70
2018-12-05T03:22:03.130Z,7.70
2018-12-05T03:24:31.674Z,7.70
2018-12-05T03:27:00.504Z,7.70
2018-12-05T03:29:29.036Z,7.70
2018-12-05T03:31:57.618Z,7.70
2018-12-05T03:34:26.146Z,7.80
2018-12-05T03:36:54.786Z,7.80
2018-12-05T03:39:23.295Z,7.80
2018-12-05T03:41:51.858Z,7.90
2018-12-05T03:44:21.306Z,7.80
2018-12-05T03:46:49.841Z,7.80
2018-12-05T03:49:18.987Z,7.80
2018-12-05T03:51:47.971Z,7.80
2018-12-05T03:54:17.579Z,7.80
2018-12-05T03:56:46.207Z,7.80
2018-12-05T03:59:14.697Z,7.80
2018-12-05T04:01:43.187Z,7.80
2018-12-05T04:04:12.242Z,7.90
2018-12-05T04:06:41.011Z,7.80
2018-12-05T04:09:10.114Z,7.90
2018-12-05T04:11:38.725Z,7.90
2018-12-05T04:14:07.355Z,7.90
2018-12-05T04:16:35.926Z,7.90
2018-12-05T04:19:05.433Z,7.80
2018-12-05T04:21:34.147Z,7.80
2018-12-05T04:24:04.661Z,7.80
2018-12-05T04:26:33.434Z,7.80
2018-12-05T04:29:02.037Z,7.80
2018-12-05T04:31:30.504Z,7.80
2018-12-05T04:33:59.046Z,7.80
2018-12-05T04:36:27.565Z,7.80
2018-12-05T04:38:56.140Z,7.80
2018-12-05T04:41:25.028Z,7.80
2018-12-05T04:43:53.579Z,7.70
2018-12-05T04:46:22.112Z,7.70
2018-12-05T04:48:51.020Z,7.70
2018-12-05T04:51:19.565Z,7.70
2018-12-05T04:53:48.210Z,7.70
2018-12-05T04:56:16.756Z,7.70
2018-12-05T04:58:45.360Z,7.70
2018-12-05T05:01:13.968Z,7.70
2018-12-05T05:03:42.528Z,7.70
2018-12-05T05:06:11.281Z,7.60
2018-12-05T05:08:39.924Z,7.60
2018-12-05T05:11:08.520Z,7.60
2018-12-05T05:13:37.050Z,7.60
2018-12-05T05:16:05.567Z,7.70
2018-12-05T05:18:34.150Z,7.60
2018-12-05T05:21:02.723Z,7.60
2018-12-05T05:23:31.666Z,7.60
2018-12-05T05:26:01.174Z,7.60
2018-12-05T05:28:30.060Z,7.60
2018-12-05T05:30:58.643Z,7.60
2018-12-05T05:33:27.686Z,7.60
2018-12-05T05:35:56.309Z,7.70
2018-12-05T05:38:26.161Z,7.70
2018-12-05T05:40:55.622Z,7.70
2018-12-05T05:43:24.267Z,7.70
2018-12-05T05:45:52.851Z,7.70
2018-12-05T05:48:21.435Z,7.60
2018-12-05T05:50:50.439Z,7.60
2018-12-05T05:53:19.148Z,7.60
2018-12-05T05:55:47.625Z,7.60
2018-12-05T05:58:16.393Z,7.50
2018-12-05T06:00:45.010Z,7.60
2018-12-05T06:03:14.331Z,7.50
2018-12-05T06:05:43.450Z,7.60
2018-12-05T06:08:12.002Z,7.60
2018-12-05T06:10:41.640Z,7.60
2018-12-05T06:13:10.788Z,7.60
2018-12-05T06:15:39.504Z,7.60
2018-12-05T06:18:08.195Z,7.60
2018-12-05T06:20:37.045Z,7.60
2018-12-05T06:23:06.268Z,7.60
2018-12-05T06:25:34.977Z,7.60
2018-12-05T06:28:04.004Z,7.60
2018-12-05T06:30:32.620Z,7.70
2018-12-05T06:33:01.590Z,7.70
2018-12-05T06:35:30.187Z,7.60
2018-12-05T06:37:58.813Z,7.60
2018-12-05T06:40:27.941Z,7.70
2018-12-05T06:42:57.977Z,7.70
2018-12-05T06:45:27.370Z,7.80
2018-12-05T06:47:56.014Z,7.80
2018-12-05T06:50:24.778Z,7.80
2018-12-05T06:52:54.474Z,7.80
2018-12-05T06:55:25.028Z,7.80
2018-12-05T06:57:53.611Z,7.80
2018-12-05T07:00:22.512Z,7.80
2018-12-05T07:02:51.166Z,7.80
2018-12-05T07:05:19.954Z,7.80
2018-12-05T07:07:48.625Z,7.80
2018-12-05T07:10:20.188Z,7.80
2018-12-05T07:12:49.603Z,7.80
2018-12-05T07:15:18.381Z,7.90
2018-12-05T07:17:47.813Z,7.90
2018-12-05T07:20:16.503Z,8.00
2018-12-05T07:22:46.260Z,7.90
2018-12-05T07:25:14.882Z,7.90
2018-12-05T07:27:43.974Z,7.90
2018-12-05T07:30:12.941Z,7.90
2018-12-05T07:32:41.568Z,7.90
2018-12-05T07:35:10.246Z,7.90
2018-12-05T07:37:38.929Z,7.80
2018-12-05T07:40:09.432Z,7.80
2018-12-05T07:42:38.849Z,7.80
2018-12-05T07:45:08.062Z,7.80
2018-12-05T07:47:37.098Z,7.90
2018-12-05T07:50:07.079Z,7.90
2018-12-05T07:52:36.285Z,7.90
2018-12-05T07:55:05.137Z,7.90
2018-12-05T07:57:34.001Z,7.90
2018-12-05T08:00:03.813Z,7.90
2018-12-05T08:02:32.549Z,7.90
2018-12-05T08:05:01.666Z,7.90
2018-12-05T08:07:31.179Z,7.90
2018-12-05T08:10:00.325Z,7.90
2018-12-05T08:12:29.869Z,7.90
2018-12-05T08:14:58.496Z,7.90
2018-12-05T08:17:27.180Z,7.90
2018-12-05T08:19:56.234Z,7.90
2018-12-05T08:22:25.045Z,7.90
2018-12-05T08:24:53.639Z,7.90
2018-12-05T08:27:22.253Z,8.00
2018-12-05T08:29:50.857Z,8.00
2018-12-05T08:32:20.567Z,8.00
2018-12-05T08:34:50.331Z,8.00
2018-12-05T08:37:18.943Z,8.00
2018-12-05T08:39:47.700Z,8.00
2018-12-05T08:42:16.422Z,8.00
2018-12-05T08:44:45.840Z,8.00
2018-12-05T08:47:14.522Z,8.10
2018-12-05T08:49:43.287Z,8.10
2018-12-05T08:52:12.604Z,8.20
2018-12-05T08:54:41.106Z,8.20
2018-12-05T08:57:09.596Z,8.30
2018-12-05T08:59:38.150Z,8.20
2018-12-05T09:02:06.733Z,8.30
2018-12-05T09:04:35.286Z,8.30
2018-12-05T09:07:04.560Z,8.40
2018-12-05T09:09:33.305Z,8.40
2018-12-05T09:12:02.481Z,8.40
2018-12-05T09:14:31.633Z,8.40
2018-12-05T09:17:00.222Z,8.50
2018-12-05T09:19:28.858Z,8.60
2018-12-05T09:21:57.521Z,8.50
2018-12-05T09:24:26.063Z,8.60
2018-12-05T09:26:54.669Z,8.60
2018-12-05T09:29:23.150Z,8.50
2018-12-05T09:31:52.050Z,8.50
2018-12-05T09:34:20.622Z,8.50
2018-12-05T09:36:49.065Z,8.50
2018-12-05T09:39:17.609Z,8.60
2018-12-05T09:41:46.456Z,8.60
2018-12-05T09:44:15.093Z,8.60
2018-12-05T09:46:43.592Z,8.70
2018-12-05T09:49:12.119Z,8.70
2018-12-05T09:51:40.664Z,8.70
2018-12-05T09:54:09.190Z,8.80
2018-12-05T09:56:37.950Z,8.90
2018-12-05T09:59:07.170Z,8.90
2018-12-05T10:01:36.035Z,8.90
2018-12-05T10:04:04.900Z,8.90
2018-12-05T10:06:34.157Z,9.00
2018-12-05T10:09:04.239Z,9.00
2018-12-05T10:11:32.757Z,9.00
2018-12-05T10:14:01.256Z,9.10
2018-12-05T10:16:29.915Z,9.00
2018-12-05T10:18:59.220Z,9.10
2018-12-05T10:21:27.809Z,9.20
2018-12-05T10:23:56.960Z,9.20
2018-12-05T10:26:26.282Z,9.20
2018-12-05T10:28:55.084Z,9.30
2018-12-05T10:31:23.682Z,9.20
2018-12-05T10:33:52.390Z,9.20
2018-12-05T10:36:21.387Z,9.20
2018-12-05T10:38:49.948Z,9.30
2018-12-05T10:41:19.286Z,9.30
2018-12-05T10:43:51.054Z,9.30
2018-12-05T10:46:21.345Z,9.30
2018-12-05T10:48:50.113Z,9.30
2018-12-05T10:51:19.098Z,9.30
2018-12-05T10:53:48.433Z,9.30
2018-12-05T10:56:19.089Z,9.30
2018-12-05T10:58:48.424Z,9.30
2018-12-05T11:01:23.445Z,9.30
2018-12-05T11:03:52.901Z,9.30
2018-12-05T11:06:26.894Z,9.40
2018-12-05T11:11:05.160Z,9.50
2018-12-05T11:13:39.495Z,9.50
2018-12-05T11:16:13.473Z,9.60
2018-12-05T11:18:48.013Z,9.60
2018-12-05T11:21:22.759Z,9.70
2018-12-05T11:23:57.562Z,9.70
2018-12-05T11:26:29.575Z,9.80
2018-12-05T11:28:58.281Z,9.80
2018-12-05T11:31:27.215Z,9.80
2018-12-05T11:33:56.400Z,9.80
2018-12-05T11:36:25.045Z,9.80
2018-12-05T11:38:54.905Z,9.90
2018-12-05T11:41:23.544Z,9.90
2018-12-05T11:43:53.301Z,9.90
2018-12-05T11:46:22.086Z,9.90
2018-12-05T11:48:50.753Z,9.90
2018-12-05T11:51:19.748Z,9.90
2018-12-05T11:53:48.456Z,9.90
2018-12-05T11:56:17.300Z,9.90
2018-12-05T11:58:46.027Z,9.90
2018-12-05T12:01:15.049Z,9.90
2018-12-05T12:03:44.322Z,9.90
2018-12-05T12:06:13.300Z,10.10
2018-12-05T12:08:42.050Z,10.10
2018-12-05T12:11:10.984Z,10.10
2018-12-05T12:13:39.767Z,10.20
2018-12-05T12:16:09.571Z,10.30
2018-12-05T12:18:38.734Z,10.30
2018-12-05T12:21:07.561Z,10.30
2018-12-05T12:23:36.184Z,10.30
2018-12-05T12:26:05.015Z,10.40
2018-12-05T12:28:34.301Z,10.40
2018-12-05T12:31:04.088Z,10.40
2018-12-05T12:33:33.172Z,10.40
2018-12-05T12:36:02.034Z,10.40
2018-12-05T12:38:33.713Z,10.40
2018-12-05T12:41:02.890Z,10.50
2018-12-05T12:43:31.479Z,10.50
2018-12-05T12:46:02.280Z,10.50
2018-12-05T12:48:31.869Z,10.50
2018-12-05T12:51:00.592Z,10.50
2018-12-05T12:53:29.143Z,10.60
2018-12-05T12:55:57.849Z,10.60
2018-12-05T12:58:27.162Z,10.60
2018-12-05T13:00:56.072Z,10.60
2018-12-05T13:03:24.687Z,10.70
2018-12-05T13:05:53.453Z,10.70
2018-12-05T13:08:22.037Z,10.70
2018-12-05T13:10:51.061Z,10.70
2018-12-05T13:13:19.603Z,10.80
2018-12-05T13:15:48.502Z,10.80
2018-12-05T13:18:17.404Z,10.70
2018-12-05T13:20:46.113Z,10.80
2018-12-05T13:23:14.809Z,10.80
2018-12-05T13:25:43.538Z,10.80
2018-12-05T13:28:12.287Z,10.80
2018-12-05T13:30:41.028Z,10.80
2018-12-05T13:33:09.653Z,10.80
2018-12-05T13:35:38.717Z,10.80
2018-12-05T13:38:07.354Z,10.80
2018-12-05T13:40:35.970Z,10.90
2018-12-05T13:43:04.850Z,10.90
2018-12-05T13:45:33.579Z,10.90
2018-12-05T13:48:02.666Z,10.90
2018-12-05T13:50:32.067Z,10.90
2018-12-05T13:53:01.426Z,10.90
2018-12-05T13:55:30.188Z,11.00
2018-12-05T13:57:58.796Z,10.90
2018-12-05T14:00:28.137Z,11.00
2018-12-05T14:02:56.752Z,11.00
2018-12-05T14:05:25.393Z,11.10
2018-12-05T14:07:54.123Z,11.10
2018-12-05T14:10:23.284Z,11.10
2018-12-05T14:12:52.303Z,11.20
2018-12-05T14:15:20.908Z,11.20
2018-12-05T14:17:50.768Z,11.10
2018-12-05T14:20:19.450Z,11.10
2018-12-05T14:22:48.119Z,11.20
2018-12-05T14:25:16.935Z,11.20
2018-12-05T14:27:46.229Z,11.20
2018-12-05T14:30:15.434Z,11.10
2018-12-05T14:32:44.046Z,11.20
2018-12-05T14:35:12.705Z,11.20
2018-12-05T14:37:42.406Z,11.20
2018-12-05T14:40:11.220Z,11.10
2018-12-05T14:42:41.719Z,11.00
2018-12-05T14:45:11.079Z,11.00
2018-12-05T14:47:39.694Z,11.00
2018-12-05T14:50:08.687Z,11.00
2018-12-05T14:52:37.341Z,11.00
2018-12-05T14:55:07.509Z,10.90
2018-12-05T14:57:36.187Z,10.90
2018-12-05T15:00:05.433Z,10.90
2018-12-05T15:02:34.150Z,11.00
2018-12-05T15:05:03.721Z,10.90
2018-12-05T15:07:32.741Z,10.90
2018-12-05T15:10:01.327Z,11.00
2018-12-05T15:12:30.017Z,11.00
2018-12-05T15:15:00.195Z,10.90
2018-12-05T15:17:28.793Z,10.90
2018-12-05T15:19:58.366Z,10.90
2018-12-05T15:22:27.062Z,10.90
2018-12-05T15:24:55.883Z,10.80
2018-12-05T15:27:24.917Z,10.80
2018-12-05T15:29:54.588Z,10.80
2018-12-05T15:32:23.206Z,10.90
2018-12-05T15:34:52.251Z,10.90
2018-12-05T15:37:22.568Z,10.90
2018-12-05T15:39:51.991Z,10.90
2018-12-05T15:42:20.951Z,10.90
2018-12-05T15:44:49.587Z,10.90
2018-12-05T15:47:18.161Z,10.90
2018-12-05T15:49:46.871Z,10.90
2018-12-05T15:52:16.148Z,10.90
2018-12-05T15:54:45.325Z,10.90
2018-12-05T15:57:14.118Z,10.90
2018-12-05T15:59:44.286Z,10.90
2018-12-05T16:02:13.066Z,10.90
2018-12-05T16:04:42.597Z,11.00
2018-12-05T16:07:11.880Z,11.00
2018-12-05T16:09:40.398Z,11.00
2018-12-05T16:12:09.693Z,10.90
2018-12-05T16:14:38.889Z,10.90
2018-12-05T16:17:07.445Z,10.80
2018-12-05T16:19:36.025Z,10.90
2018-12-05T16:22:04.898Z,10.90
2018-12-05T16:24:34.436Z,10.90
2018-12-05T16:27:03.501Z,10.90
2018-12-05T16:29:32.146Z,10.90
2018-12-05T16:32:00.710Z,10.90
2018-12-05T16:34:29.255Z,10.90
2018-12-05T16:36:58.081Z,11.00
2018-12-05T16:39:27.494Z,11.00
2018-12-05T16:41:59.319Z,11.00
2018-12-05T16:44:30.239Z,10.90
2018-12-05T16:46:59.961Z,10.90
2018-12-05T16:49:28.680Z,10.90
2018-12-05T16:51:57.445Z,11.00
2018-12-05T16:54:27.732Z,10.90
2018-12-05T16:56:56.718Z,11.00
2018-12-05T16:59:25.644Z,11.00
2018-12-05T17:01:54.293Z,10.90
2018-12-05T17:04:22.862Z,11.00
2018-12-05T17:06:51.957Z,11.00
2018-12-05T17:09:26.044Z,10.90
2018-12-05T17:11:52.153Z,11.00
2018-12-05T17:14:20.816Z,11.00
2018-12-05T17:16:49.438Z,11.00
2018-12-05T17:19:18.181Z,11.00
2018-12-05T17:21:46.890Z,11.00
2018-12-05T17:24:15.477Z,11.00
2018-12-05T17:26:44.392Z,11.00
2018-12-05T17:29:13.123Z,11.00
2018-12-05T17:31:42.027Z,11.00
2018-12-05T17:34:10.716Z,11.00
2018-12-05T17:36:40.791Z,10.90
2018-12-05T17:39:09.810Z,11.00
2018-12-05T17:41:38.551Z,10.90
2018-12-05T17:44:09.407Z,10.90
2018-12-05T17:46:43.079Z,10.90
2018-12-05T17:49:11.677Z,10.90
2018-12-05T17:51:41.206Z,11.00
2018-12-05T17:54:14.735Z,11.00
2018-12-05T17:56:42.098Z,10.90
2018-12-05T17:59:10.689Z,10.90
2018-12-05T18:01:39.565Z,10.90
2018-12-05T18:04:08.401Z,11.00
2018-12-05T18:06:36.975Z,11.00
2018-12-05T18:09:08.170Z,11.00
2018-12-05T18:11:36.842Z,11.00
2018-12-05T18:14:05.567Z,11.00
2018-12-05T18:16:34.306Z,11.00
2018-12-05T18:19:03.978Z,11.00
2018-12-05T18:21:32.661Z,11.10
2018-12-05T18:24:01.748Z,11.00
2018-12-05T18:26:30.457Z,11.00
2018-12-05T18:28:59.851Z,11.00
2018-12-05T18:31:28.918Z,11.10
2018-12-05T18:33:59.092Z,11.10
2018-12-05T18:36:28.913Z,11.00
2018-12-05T18:38:57.999Z,11.10
2018-12-05T18:41:26.775Z,11.10
2018-12-05T18:43:55.505Z,11.10
2018-12-05T18:46:26.033Z,11.10
2018-12-05T18:48:56.623Z,11.10
2018-12-05T18:51:26.605Z,11.10
2018-12-05T18:53:56.826Z,11.10
2018-12-05T18:56:26.106Z,11.10
2018-12-05T18:58:57.199Z,11.20
2018-12-05T19:01:26.983Z,11.10
2018-12-05T19:03:57.094Z,11.10
2018-12-05T19:06:26.549Z,11.10
2018-12-05T19:08:55.865Z,11.10
2018-12-05T19:11:27.560Z,11.10
2018-12-05T19:14:01.567Z,11.10
2018-12-05T19:16:30.884Z,11.10
2018-12-05T19:19:00.333Z,11.10
2018-12-05T19:21:29.467Z,11.10
2018-12-05T19:23:58.691Z,11.00
2018-12-05T19:26:27.415Z,11.00
2018-12-05T19:28:56.203Z,11.00
2018-12-05T19:31:25.079Z,11.00
2018-12-05T19:33:53.967Z,11.00
2018-12-05T19:36:23.034Z,11.10
2018-12-05T19:38:51.789Z,11.10
2018-12-05T19:41:20.490Z,11.10
2018-12-05T19:43:50.454Z,11.10
2018-12-05T19:46:19.460Z,11.10
2018-12-05T19:48:48.459Z,11.10
2018-12-05T19:51:17.502Z,11.10
2018-12-05T19:53:46.426Z,11.10
2018-12-05T19:56:16.366Z,11.00
2018-12-05T19:58:46.276Z,11.00
2018-12-05T20:01:17.579Z,11.10
2018-12-05T20:03:47.356Z,11.10
2018-12-05T20:06:16.246Z,11.10
2018-12-05T20:08:46.419Z,11.10
2018-12-05T20:11:16.638Z,11.10
2018-12-05T20:13:46.231Z,11.20
2018-12-05T20:16:15.245Z,11.20
2018-12-05T20:18:44.056Z,11.20
2018-12-05T20:21:12.846Z,11.20
2018-12-05T20:23:41.578Z,11.10
2018-12-05T20:26:10.864Z,11.20
2018-12-05T20:28:39.752Z,11.20
2018-12-05T20:31:08.388Z,11.10
2018-12-05T20:33:37.435Z,11.10
2018-12-05T20:36:06.441Z,11.00
2018-12-05T20:38:35.232Z,11.10
2018-12-05T20:41:04.120Z,11.10
2018-12-05T20:43:32.937Z,11.10
2018-12-05T20:46:01.705Z,11.10
2018-12-05T20:48:30.438Z,11.10
2018-12-05T20:50:59.477Z,11.10
2018-12-05T20:53:28.292Z,11.10
2018-12-05T20:55:56.902Z,11.00
2018-12-05T20:58:25.696Z,11.10
2018-12-05T21:00:54.336Z,11.10
2018-12-05T21:03:23.017Z,11.00
2018-12-05T21:05:51.743Z,11.00
2018-12-05T21:08:20.325Z,11.00
2018-12-05T21:10:48.990Z,11.00
2018-12-05T21:13:17.696Z,11.00
2018-12-05T21:15:47.172Z,11.00
2018-12-05T21:18:15.797Z,11.00
2018-12-05T21:20:45.069Z,11.00
2018-12-05T21:23:13.749Z,10.90
2018-12-05T21:25:42.369Z,10.90
2018-12-05T21:28:10.939Z,10.90
2018-12-05T21:30:39.737Z,10.90
2018-12-05T21:33:08.358Z,10.90
2018-12-05T21:35:36.934Z,10.90
2018-12-05T21:38:06.071Z,10.80
2018-12-05T21:40:36.963Z,10.80
2018-12-05T21:43:06.094Z,10.80
2018-12-05T21:45:34.780Z,10.80
2018-12-05T21:48:03.531Z,10.90
2018-12-05T21:50:32.161Z,10.90
2018-12-05T21:53:01.029Z,10.90
2018-12-05T21:55:29.604Z,10.90
2018-12-05T21:57:58.180Z,10.90
2018-12-05T22:00:26.777Z,11.00
2018-12-05T22:02:55.540Z,10.90
2018-12-05T22:05:24.188Z,11.00
2018-12-05T22:07:53.344Z,11.00
2018-12-05T22:10:22.313Z,11.00
2018-12-05T22:12:51.384Z,11.00
2018-12-05T22:15:19.905Z,11.10
2018-12-05T22:17:48.650Z,11.10
2018-12-05T22:20:18.258Z,11.10
2018-12-05T22:22:46.792Z,11.10
2018-12-05T22:25:15.305Z,11.10
2018-12-05T22:27:44.070Z,11.00
2018-12-05T22:30:12.682Z,11.00
2018-12-05T22:32:41.292Z,11.00
2018-12-05T22:35:10.457Z,11.00
2018-12-05T22:37:39.079Z,11.00
2018-12-05T22:40:08.751Z,11.00
2018-12-05T22:42:37.307Z,11.00
2018-12-05T22:45:06.175Z,11.00
2018-12-05T22:47:34.708Z,11.00
2018-12-05T22:50:03.431Z,11.00
2018-12-05T22:52:31.948Z,11.00
2018-12-05T22:55:00.476Z,11.00
2018-12-05T22:57:30.093Z,11.00
2018-12-05T22:59:59.358Z,11.00
2018-12-05T23:02:27.895Z,10.90
2018-12-05T23:04:56.410Z,11.00
2018-12-05T23:07:24.897Z,11.00
2018-12-05T23:09:53.438Z,11.00
2018-12-05T23:12:22.723Z,11.00
2018-12-05T23:14:51.269Z,11.00
2018-12-05T23:17:20.389Z,11.00
2018-12-05T23:19:48.926Z,11.00
2018-12-05T23:22:17.430Z,11.00
2018-12-05T23:24:45.917Z,11.10
2018-12-05T23:27:15.445Z,11.10
2018-12-05T23:29:44.063Z,11.10
2018-12-05T23:32:12.572Z,11.10
2018-12-05T23:34:41.091Z,11.10
2018-12-05T23:37:09.606Z,11.10
2018-12-05T23:39:38.876Z,11.10
2018-12-05T23:42:07.468Z,11.10
2018-12-05T23:44:36.059Z,11.10
2018-12-05T23:47:05.251Z,11.10
2018-12-05T23:49:34.364Z,11.20
2018-12-05T23:52:46.564Z,11.20
2018-12-05T23:55:15.037Z,11.20
2018-12-05T23:57:43.533Z,11.20
